sensor_id;sensor_type;location;lat;lon;timestamp;pressure;altitude;pressure_sealevel;temperature;humidity
41515;BME280;27247;48.020;16.720;2023-03-04T00:00:20;100207.38;;;-0.64;81.98
41515;BME280;27247;48.020;16.720;2023-03-04T00:04:30;100207.38;;;-0.64;83.60
41515;BME280;27247;48.020;16.720;2023-03-04T00:08:40;100209.53;;;-0.56;83.71
41515;BME280;27247;48.020;16.720;2023-03-04T00:12:51;100212.91;;;-0.13;86.35
41515;BME280;27247;48.020;16.720;2023-03-04T00:17:02;100208.88;;;0.22;87.08
41515;BME280;27247;48.020;16.720;2023-03-04T00:21:13;100210.16;;;0.42;86.34
41515;BME280;27247;48.020;16.720;2023-03-04T00:25:23;100207.34;;;0.58;85.72
41515;BME280;27247;48.020;16.720;2023-03-04T00:29:34;100204.94;;;0.68;85.57
41515;BME280;27247;48.020;16.720;2023-03-04T00:33:44;100192.53;;;0.82;85.45
41515;BME280;27247;48.020;16.720;2023-03-04T00:37:54;100182.75;;;0.97;84.52
41515;BME280;27247;48.020;16.720;2023-03-04T00:42:05;100176.34;;;1.01;84.17
41515;BME280;27247;48.020;16.720;2023-03-04T00:46:15;100185.38;;;0.84;83.04
41515;BME280;27247;48.020;16.720;2023-03-04T00:50:25;100175.75;;;0.20;80.27
41515;BME280;27247;48.020;16.720;2023-03-04T00:54:36;100169.69;;;0.32;80.31
41515;BME280;27247;48.020;16.720;2023-03-04T00:58:46;100162.31;;;0.24;81.17
41515;BME280;27247;48.020;16.720;2023-03-04T01:02:56;100169.22;;;0.13;81.73
41515;BME280;27247;48.020;16.720;2023-03-04T01:07:07;100164.81;;;0.13;81.53
41515;BME280;27247;48.020;16.720;2023-03-04T01:11:17;100165.13;;;-0.06;82.30
41515;BME280;27247;48.020;16.720;2023-03-04T01:15:28;100155.88;;;-0.11;83.08
41515;BME280;27247;48.020;16.720;2023-03-04T01:19:38;100153.59;;;-0.30;83.93
41515;BME280;27247;48.020;16.720;2023-03-04T01:23:48;100157.22;;;-0.18;82.07
41515;BME280;27247;48.020;16.720;2023-03-04T01:27:59;100153.50;;;-0.28;82.96
41515;BME280;27247;48.020;16.720;2023-03-04T01:32:09;100141.16;;;-0.14;84.87
41515;BME280;27247;48.020;16.720;2023-03-04T01:36:19;100138.84;;;0.09;86.59
41515;BME280;27247;48.020;16.720;2023-03-04T01:40:30;100117.19;;;0.18;86.23
41515;BME280;27247;48.020;16.720;2023-03-04T01:44:41;100116.16;;;0.33;86.23
41515;BME280;27247;48.020;16.720;2023-03-04T01:48:52;100106.28;;;0.37;86.77
41515;BME280;27247;48.020;16.720;2023-03-04T01:53:03;100102.28;;;0.31;86.04
41515;BME280;27247;48.020;16.720;2023-03-04T01:57:19;100107.34;;;0.34;85.94
41515;BME280;27247;48.020;16.720;2023-03-04T02:01:29;100106.81;;;0.42;85.37
41515;BME280;27247;48.020;16.720;2023-03-04T02:05:42;100106.50;;;0.46;84.53
41515;BME280;27247;48.020;16.720;2023-03-04T02:09:53;100095.16;;;0.46;84.50
41515;BME280;27247;48.020;16.720;2023-03-04T02:14:04;100088.22;;;0.45;84.20
41515;BME280;27247;48.020;16.720;2023-03-04T02:18:17;100080.94;;;0.48;84.16
41515;BME280;27247;48.020;16.720;2023-03-04T02:22:28;100080.63;;;0.53;84.38
41515;BME280;27247;48.020;16.720;2023-03-04T02:26:38;100077.69;;;0.57;84.12
41515;BME280;27247;48.020;16.720;2023-03-04T02:30:52;100078.09;;;0.51;84.09
41515;BME280;27247;48.020;16.720;2023-03-04T02:35:03;100076.22;;;0.53;83.96
41515;BME280;27247;48.020;16.720;2023-03-04T02:43:30;100060.88;;;0.47;83.13
41515;BME280;27247;48.020;16.720;2023-03-04T02:47:40;100067.06;;;0.46;83.92
41515;BME280;27247;48.020;16.720;2023-03-04T02:51:52;100052.66;;;0.39;84.16
41515;BME280;27247;48.020;16.720;2023-03-04T02:56:03;100057.59;;;0.18;83.28
41515;BME280;27247;48.020;16.720;2023-03-04T03:00:13;100054.22;;;0.04;83.83
41515;BME280;27247;48.020;16.720;2023-03-04T03:04:25;100045.31;;;0.06;83.74
41515;BME280;27247;48.020;16.720;2023-03-04T03:08:35;100039.22;;;0.18;84.22
41515;BME280;27247;48.020;16.720;2023-03-04T03:12:46;100030.38;;;0.32;85.70
41515;BME280;27247;48.020;16.720;2023-03-04T03:16:56;100024.88;;;-0.03;84.71
41515;BME280;27247;48.020;16.720;2023-03-04T03:21:06;100028.72;;;-0.34;83.92
41515;BME280;27247;48.020;16.720;2023-03-04T03:25:17;100015.19;;;-0.28;86.63
41515;BME280;27247;48.020;16.720;2023-03-04T03:29:28;100014.88;;;-0.23;87.90
41515;BME280;27247;48.020;16.720;2023-03-04T03:33:38;100004.16;;;-0.33;85.34
41515;BME280;27247;48.020;16.720;2023-03-04T03:37:48;100002.56;;;-0.36;84.86
41515;BME280;27247;48.020;16.720;2023-03-04T03:41:59;100001.31;;;-0.43;86.76
41515;BME280;27247;48.020;16.720;2023-03-04T03:46:09;99993.31;;;-0.41;87.62
41515;BME280;27247;48.020;16.720;2023-03-04T03:50:20;99990.16;;;-0.46;87.16
41515;BME280;27247;48.020;16.720;2023-03-04T03:54:30;99982.50;;;-0.89;85.72
41515;BME280;27247;48.020;16.720;2023-03-04T03:58:40;99987.75;;;-0.89;84.99
41515;BME280;27247;48.020;16.720;2023-03-04T04:02:53;99981.13;;;-0.94;86.16
41515;BME280;27247;48.020;16.720;2023-03-04T04:07:04;99973.09;;;-0.79;87.21
41515;BME280;27247;48.020;16.720;2023-03-04T04:11:14;99977.00;;;-0.72;87.19
41515;BME280;27247;48.020;16.720;2023-03-04T04:15:25;99970.41;;;-0.65;86.75
41515;BME280;27247;48.020;16.720;2023-03-04T04:19:35;99966.00;;;-0.51;86.51
41515;BME280;27247;48.020;16.720;2023-03-04T04:23:46;99965.41;;;-0.29;85.67
41515;BME280;27247;48.020;16.720;2023-03-04T04:27:56;99952.72;;;-0.23;84.98
41515;BME280;27247;48.020;16.720;2023-03-04T04:32:07;99963.84;;;-0.07;84.00
41515;BME280;27247;48.020;16.720;2023-03-04T04:36:18;99946.13;;;0.10;83.23
41515;BME280;27247;48.020;16.720;2023-03-04T04:40:28;99958.81;;;0.16;82.21
41515;BME280;27247;48.020;16.720;2023-03-04T04:44:38;99950.50;;;-0.04;81.87
41515;BME280;27247;48.020;16.720;2023-03-04T04:48:49;99951.13;;;-0.25;83.35
41515;BME280;27247;48.020;16.720;2023-03-04T04:52:59;99951.75;;;-0.22;82.98
41515;BME280;27247;48.020;16.720;2023-03-04T04:57:09;99944.41;;;-0.17;83.26
41515;BME280;27247;48.020;16.720;2023-03-04T05:01:20;99948.19;;;-0.34;83.49
41515;BME280;27247;48.020;16.720;2023-03-04T05:05:30;99947.13;;;-0.06;83.71
41515;BME280;27247;48.020;16.720;2023-03-04T05:09:41;99946.72;;;0.26;82.92
41515;BME280;27247;48.020;16.720;2023-03-04T05:13:51;99952.28;;;0.21;83.16
41515;BME280;27247;48.020;16.720;2023-03-04T05:18:01;99944.72;;;0.29;82.34
41515;BME280;27247;48.020;16.720;2023-03-04T05:22:12;99939.13;;;0.34;82.02
41515;BME280;27247;48.020;16.720;2023-03-04T05:26:22;99948.00;;;0.20;81.67
41515;BME280;27247;48.020;16.720;2023-03-04T05:30:32;99952.22;;;0.10;83.16
41515;BME280;27247;48.020;16.720;2023-03-04T05:34:43;99952.84;;;0.01;82.85
41515;BME280;27247;48.020;16.720;2023-03-04T05:38:53;99949.16;;;0.04;83.17
41515;BME280;27247;48.020;16.720;2023-03-04T05:43:03;99954.19;;;-0.06;83.29
41515;BME280;27247;48.020;16.720;2023-03-04T05:47:14;99958.69;;;-0.08;83.19
41515;BME280;27247;48.020;16.720;2023-03-04T05:51:24;99959.97;;;-0.01;83.97
41515;BME280;27247;48.020;16.720;2023-03-04T05:55:34;99960.94;;;0.11;83.45
41515;BME280;27247;48.020;16.720;2023-03-04T05:59:45;99953.53;;;-0.10;81.49
41515;BME280;27247;48.020;16.720;2023-03-04T06:03:55;99951.66;;;-0.33;82.09
41515;BME280;27247;48.020;16.720;2023-03-04T06:08:06;99956.34;;;-0.51;82.59
41515;BME280;27247;48.020;16.720;2023-03-04T06:12:16;99966.53;;;-0.46;83.28
41515;BME280;27247;48.020;16.720;2023-03-04T06:16:26;99968.31;;;-0.47;84.75
41515;BME280;27247;48.020;16.720;2023-03-04T06:20:37;99976.84;;;-0.43;84.86
41515;BME280;27247;48.020;16.720;2023-03-04T06:24:47;99977.28;;;-0.37;85.11
41515;BME280;27247;48.020;16.720;2023-03-04T06:28:58;99978.53;;;-0.29;84.85
41515;BME280;27247;48.020;16.720;2023-03-04T06:33:08;99986.13;;;-0.12;85.04
41515;BME280;27247;48.020;16.720;2023-03-04T06:37:18;99992.13;;;0.03;84.93
41515;BME280;27247;48.020;16.720;2023-03-04T06:41:29;99990.66;;;0.24;85.37
41515;BME280;27247;48.020;16.720;2023-03-04T06:45:40;99998.41;;;0.51;85.41
41515;BME280;27247;48.020;16.720;2023-03-04T06:49:50;99985.41;;;0.73;85.59
41515;BME280;27247;48.020;16.720;2023-03-04T06:54:01;99992.38;;;0.98;85.42
41515;BME280;27247;48.020;16.720;2023-03-04T06:58:12;99996.00;;;1.21;85.76
41515;BME280;27247;48.020;16.720;2023-03-04T07:02:22;99993.34;;;1.45;86.03
41515;BME280;27247;48.020;16.720;2023-03-04T07:06:33;99988.88;;;1.69;85.86
41515;BME280;27247;48.020;16.720;2023-03-04T07:10:43;99990.38;;;1.96;85.46
41515;BME280;27247;48.020;16.720;2023-03-04T07:14:54;99984.44;;;2.16;85.65
41515;BME280;27247;48.020;16.720;2023-03-04T07:19:04;99992.84;;;2.32;84.04
41515;BME280;27247;48.020;16.720;2023-03-04T07:23:14;99986.84;;;2.41;83.68
41515;BME280;27247;48.020;16.720;2023-03-04T07:27:25;99989.00;;;2.47;83.20
41515;BME280;27247;48.020;16.720;2023-03-04T07:31:35;99985.53;;;2.24;82.76
41515;BME280;27247;48.020;16.720;2023-03-04T07:35:46;99983.97;;;2.22;82.82
41515;BME280;27247;48.020;16.720;2023-03-04T07:39:57;99977.97;;;2.20;83.56
41515;BME280;27247;48.020;16.720;2023-03-04T07:44:10;99977.03;;;2.32;84.36
41515;BME280;27247;48.020;16.720;2023-03-04T07:48:22;99979.53;;;2.67;84.01
41515;BME280;27247;48.020;16.720;2023-03-04T07:52:32;99984.38;;;3.05;83.41
41515;BME280;27247;48.020;16.720;2023-03-04T07:56:42;99981.13;;;3.45;82.06
41515;BME280;27247;48.020;16.720;2023-03-04T08:00:53;99974.97;;;3.56;80.49
41515;BME280;27247;48.020;16.720;2023-03-04T08:05:04;99966.00;;;3.89;79.25
41515;BME280;27247;48.020;16.720;2023-03-04T08:09:14;99972.31;;;4.18;79.09
41515;BME280;27247;48.020;16.720;2023-03-04T08:13:25;99977.44;;;4.40;78.83
41515;BME280;27247;48.020;16.720;2023-03-04T08:17:35;99984.19;;;4.54;78.75
41515;BME280;27247;48.020;16.720;2023-03-04T08:21:45;99986.06;;;4.73;79.25
41515;BME280;27247;48.020;16.720;2023-03-04T08:25:56;99977.59;;;4.89;78.29
41515;BME280;27247;48.020;16.720;2023-03-04T08:30:07;99976.09;;;4.96;77.65
41515;BME280;27247;48.020;16.720;2023-03-04T08:34:20;99975.97;;;5.17;77.49
41515;BME280;27247;48.020;16.720;2023-03-04T08:38:30;99969.47;;;5.30;77.38
41515;BME280;27247;48.020;16.720;2023-03-04T08:42:41;99962.63;;;5.37;77.11
41515;BME280;27247;48.020;16.720;2023-03-04T08:46:51;99962.50;;;5.49;77.19
41515;BME280;27247;48.020;16.720;2023-03-04T08:51:09;99947.97;;;5.91;76.19
41515;BME280;27247;48.020;16.720;2023-03-04T08:55:19;99951.22;;;6.22;74.91
41515;BME280;27247;48.020;16.720;2023-03-04T08:59:29;99950.41;;;6.59;73.69
41515;BME280;27247;48.020;16.720;2023-03-04T09:03:40;99944.63;;;6.91;72.66
41515;BME280;27247;48.020;16.720;2023-03-04T09:07:52;99949.41;;;7.32;71.96
41515;BME280;27247;48.020;16.720;2023-03-04T09:12:03;99940.06;;;7.90;71.32
41515;BME280;27247;48.020;16.720;2023-03-04T09:16:14;99929.59;;;8.40;69.54
41515;BME280;27247;48.020;16.720;2023-03-04T09:20:24;99935.59;;;8.84;68.58
41515;BME280;27247;48.020;16.720;2023-03-04T09:24:34;99927.34;;;9.28;67.79
41515;BME280;27247;48.020;16.720;2023-03-04T09:28:50;99923.22;;;9.66;68.15
41515;BME280;27247;48.020;16.720;2023-03-04T09:33:00;99915.34;;;9.97;65.88
41515;BME280;27247;48.020;16.720;2023-03-04T09:37:11;99903.44;;;10.24;62.00
41515;BME280;27247;48.020;16.720;2023-03-04T09:41:26;99899.38;;;10.52;60.26
41515;BME280;27247;48.020;16.720;2023-03-04T09:45:42;99905.69;;;10.60;59.55
41515;BME280;27247;48.020;16.720;2023-03-04T09:50:00;99889.25;;;10.71;58.67
41515;BME280;27247;48.020;16.720;2023-03-04T10:03:19;99879.59;;;10.93;57.68
41515;BME280;27247;48.020;16.720;2023-03-04T10:07:37;99868.50;;;11.04;57.96
41515;BME280;27247;48.020;16.720;2023-03-04T10:12:05;99873.13;;;10.87;57.72
41515;BME280;27247;48.020;16.720;2023-03-04T10:16:20;99871.47;;;10.86;58.22
41515;BME280;27247;48.020;16.720;2023-03-04T10:20:43;99859.81;;;11.02;58.32
41515;BME280;27247;48.020;16.720;2023-03-04T10:24:57;99857.16;;;11.02;57.81
41515;BME280;27247;48.020;16.720;2023-03-04T10:29:14;99851.03;;;11.16;56.57
41515;BME280;27247;48.020;16.720;2023-03-04T10:33:28;99839.31;;;11.17;55.91
41515;BME280;27247;48.020;16.720;2023-03-04T10:37:48;99820.44;;;11.33;56.54
41515;BME280;27247;48.020;16.720;2023-03-04T10:42:22;99818.72;;;11.40;56.00
41515;BME280;27247;48.020;16.720;2023-03-04T10:46:36;99826.75;;;11.40;55.95
41515;BME280;27247;48.020;16.720;2023-03-04T10:50:47;99804.19;;;11.58;54.90
41515;BME280;27247;48.020;16.720;2023-03-04T10:55:01;99806.41;;;11.54;53.89
41515;BME280;27247;48.020;16.720;2023-03-04T10:59:33;99804.28;;;11.64;53.26
41515;BME280;27247;48.020;16.720;2023-03-04T11:03:47;99804.22;;;11.72;52.63
41515;BME280;27247;48.020;16.720;2023-03-04T11:07:59;99807.34;;;11.76;52.38
41515;BME280;27247;48.020;16.720;2023-03-04T11:12:15;99796.84;;;11.89;52.36
41515;BME280;27247;48.020;16.720;2023-03-04T11:16:29;99792.13;;;12.06;50.03
41515;BME280;27247;48.020;16.720;2023-03-04T11:20:42;99789.75;;;11.81;51.19
41515;BME280;27247;48.020;16.720;2023-03-04T11:25:00;99791.41;;;11.82;50.65
41515;BME280;27247;48.020;16.720;2023-03-04T11:29:19;99797.88;;;12.03;51.14
41515;BME280;27247;48.020;16.720;2023-03-04T11:33:43;99773.31;;;11.99;50.54
41515;BME280;27247;48.020;16.720;2023-03-04T11:38:21;99776.88;;;12.21;50.73
41515;BME280;27247;48.020;16.720;2023-03-04T11:42:41;99770.88;;;12.19;49.84
41515;BME280;27247;48.020;16.720;2023-03-04T11:51:24;99755.66;;;12.56;49.29
41515;BME280;27247;48.020;16.720;2023-03-04T12:00:24;99733.41;;;12.40;48.54
41515;BME280;27247;48.020;16.720;2023-03-04T12:09:24;99746.97;;;12.75;48.39
41515;BME280;27247;48.020;16.720;2023-03-04T12:18:13;99734.63;;;13.02;44.45
41515;BME280;27247;48.020;16.720;2023-03-04T12:31:15;99724.03;;;13.43;44.55
41515;BME280;27247;48.020;16.720;2023-03-04T12:44:19;99701.78;;;13.21;46.31
41515;BME280;27247;48.020;16.720;2023-03-04T12:48:42;99698.72;;;13.24;45.77
41515;BME280;27247;48.020;16.720;2023-03-04T12:53:04;99695.59;;;13.21;46.74
41515;BME280;27247;48.020;16.720;2023-03-04T12:57:23;99687.91;;;13.46;46.12
41515;BME280;27247;48.020;16.720;2023-03-04T13:10:29;99678.03;;;13.18;46.00
41515;BME280;27247;48.020;16.720;2023-03-04T13:14:39;99677.94;;;13.11;46.98
41515;BME280;27247;48.020;16.720;2023-03-04T13:18:50;99667.97;;;12.99;47.17
41515;BME280;27247;48.020;16.720;2023-03-04T13:27:49;99662.50;;;12.86;47.65
41515;BME280;27247;48.020;16.720;2023-03-04T13:32:08;99661.84;;;12.84;47.85
41515;BME280;27247;48.020;16.720;2023-03-04T13:36:28;99644.00;;;12.69;48.01
41515;BME280;27247;48.020;16.720;2023-03-04T13:40:39;99655.72;;;12.90;47.30
41515;BME280;27247;48.020;16.720;2023-03-04T13:44:57;99658.06;;;13.27;46.93
41515;BME280;27247;48.020;16.720;2023-03-04T13:49:20;99646.66;;;13.53;45.89
41515;BME280;27247;48.020;16.720;2023-03-04T13:53:42;99641.97;;;13.62;46.28
41515;BME280;27247;48.020;16.720;2023-03-04T13:57:53;99641.09;;;13.55;46.92
41515;BME280;27247;48.020;16.720;2023-03-04T14:02:12;99639.69;;;13.24;46.96
41515;BME280;27247;48.020;16.720;2023-03-04T14:06:29;99644.47;;;13.35;47.45
41515;BME280;27247;48.020;16.720;2023-03-04T14:10:40;99642.81;;;13.34;47.55
41515;BME280;27247;48.020;16.720;2023-03-04T14:14:53;99629.38;;;13.28;48.01
41515;BME280;27247;48.020;16.720;2023-03-04T14:19:06;99620.78;;;13.11;47.65
41515;BME280;27247;48.020;16.720;2023-03-04T14:23:28;99625.19;;;12.91;47.89
41515;BME280;27247;48.020;16.720;2023-03-04T14:27:40;99631.22;;;13.27;46.15
41515;BME280;27247;48.020;16.720;2023-03-04T14:31:51;99624.00;;;13.62;46.18
41515;BME280;27247;48.020;16.720;2023-03-04T14:36:03;99612.75;;;13.46;46.83
41515;BME280;27247;48.020;16.720;2023-03-04T14:40:40;99607.97;;;13.41;45.66
41515;BME280;27247;48.020;16.720;2023-03-04T14:44:53;99616.22;;;13.39;45.33
41515;BME280;27247;48.020;16.720;2023-03-04T14:49:08;99645.31;;;13.36;45.61
41515;BME280;27247;48.020;16.720;2023-03-04T14:53:22;99636.09;;;11.97;48.58
41515;BME280;27247;48.020;16.720;2023-03-04T14:57:33;99641.19;;;10.29;51.31
41515;BME280;27247;48.020;16.720;2023-03-04T15:01:44;99644.50;;;9.77;52.56
41515;BME280;27247;48.020;16.720;2023-03-04T15:05:55;99655.34;;;9.36;53.62
41515;BME280;27247;48.020;16.720;2023-03-04T15:10:21;99652.81;;;8.79;53.96
41515;BME280;27247;48.020;16.720;2023-03-04T15:14:53;99652.47;;;8.82;54.43
41515;BME280;27247;48.020;16.720;2023-03-04T15:19:24;99658.16;;;8.47;54.84
41515;BME280;27247;48.020;16.720;2023-03-04T15:23:35;99655.00;;;8.35;55.65
41515;BME280;27247;48.020;16.720;2023-03-04T15:27:46;99667.16;;;8.38;55.39
41515;BME280;27247;48.020;16.720;2023-03-04T15:31:57;99668.91;;;8.21;55.28
41515;BME280;27247;48.020;16.720;2023-03-04T15:36:12;99667.06;;;8.05;55.77
41515;BME280;27247;48.020;16.720;2023-03-04T15:40:36;99663.88;;;7.93;56.35
41515;BME280;27247;48.020;16.720;2023-03-04T15:44:56;99679.34;;;7.98;56.34
41515;BME280;27247;48.020;16.720;2023-03-04T15:49:07;99678.63;;;7.80;56.78
41515;BME280;27247;48.020;16.720;2023-03-04T15:57:32;99684.81;;;7.46;57.83
41515;BME280;27247;48.020;16.720;2023-03-04T16:01:43;99684.34;;;7.25;57.26
41515;BME280;27247;48.020;16.720;2023-03-04T16:05:54;99688.22;;;7.04;57.52
41515;BME280;27247;48.020;16.720;2023-03-04T16:10:25;99695.16;;;6.97;57.67
41515;BME280;27247;48.020;16.720;2023-03-04T16:14:36;99702.22;;;6.89;58.31
41515;BME280;27247;48.020;16.720;2023-03-04T16:18:47;99699.81;;;6.78;58.05
41515;BME280;27247;48.020;16.720;2023-03-04T16:22:59;99707.13;;;6.58;58.28
41515;BME280;27247;48.020;16.720;2023-03-04T16:27:12;99718.81;;;6.47;58.75
41515;BME280;27247;48.020;16.720;2023-03-04T16:31:23;99739.59;;;6.34;59.08
41515;BME280;27247;48.020;16.720;2023-03-04T16:35:35;99731.44;;;6.18;59.12
41515;BME280;27247;48.020;16.720;2023-03-04T16:39:46;99754.94;;;6.13;59.48
41515;BME280;27247;48.020;16.720;2023-03-04T16:43:59;99749.47;;;6.14;59.01
41515;BME280;27247;48.020;16.720;2023-03-04T16:48:10;99761.00;;;6.05;59.72
41515;BME280;27247;48.020;16.720;2023-03-04T16:52:26;99763.41;;;5.98;59.66
41515;BME280;27247;48.020;16.720;2023-03-04T16:56:39;99766.13;;;5.79;59.81
41515;BME280;27247;48.020;16.720;2023-03-04T17:00:50;99770.16;;;5.46;60.84
41515;BME280;27247;48.020;16.720;2023-03-04T17:05:00;99781.03;;;5.43;60.99
41515;BME280;27247;48.020;16.720;2023-03-04T17:09:12;99785.81;;;5.30;61.45
41515;BME280;27247;48.020;16.720;2023-03-04T17:13:22;99789.59;;;5.08;62.06
41515;BME280;27247;48.020;16.720;2023-03-04T17:17:33;99799.78;;;5.03;62.81
41515;BME280;27247;48.020;16.720;2023-03-04T17:21:44;99801.31;;;4.96;63.43
41515;BME280;27247;48.020;16.720;2023-03-04T17:25:58;99808.28;;;4.87;63.66
41515;BME280;27247;48.020;16.720;2023-03-04T17:30:09;99812.34;;;4.81;64.30
41515;BME280;27247;48.020;16.720;2023-03-04T17:34:20;99819.16;;;4.74;64.70
41515;BME280;27247;48.020;16.720;2023-03-04T17:38:31;99814.00;;;4.63;64.99
41515;BME280;27247;48.020;16.720;2023-03-04T17:42:43;99823.47;;;4.46;65.49
41515;BME280;27247;48.020;16.720;2023-03-04T17:46:58;99830.78;;;4.24;66.79
41515;BME280;27247;48.020;16.720;2023-03-04T17:51:10;99834.69;;;4.20;67.29
41515;BME280;27247;48.020;16.720;2023-03-04T17:55:21;99837.53;;;4.07;68.15
41515;BME280;27247;48.020;16.720;2023-03-04T17:59:32;99836.53;;;3.98;68.92
41515;BME280;27247;48.020;16.720;2023-03-04T18:03:42;99837.28;;;3.79;69.64
41515;BME280;27247;48.020;16.720;2023-03-04T18:07:53;99850.63;;;3.78;70.01
41515;BME280;27247;48.020;16.720;2023-03-04T18:12:04;99842.56;;;3.79;70.49
41515;BME280;27247;48.020;16.720;2023-03-04T18:16:16;99853.84;;;3.81;70.35
41515;BME280;27247;48.020;16.720;2023-03-04T18:20:32;99849.66;;;3.79;70.00
41515;BME280;27247;48.020;16.720;2023-03-04T18:24:43;99858.56;;;3.78;70.27
41515;BME280;27247;48.020;16.720;2023-03-04T18:28:55;99854.78;;;3.71;70.61
41515;BME280;27247;48.020;16.720;2023-03-04T18:33:06;99864.09;;;3.75;70.70
41515;BME280;27247;48.020;16.720;2023-03-04T18:37:17;99874.81;;;3.73;70.47
41515;BME280;27247;48.020;16.720;2023-03-04T18:41:28;99869.09;;;3.68;70.66
41515;BME280;27247;48.020;16.720;2023-03-04T18:45:39;99871.59;;;3.70;70.53
41515;BME280;27247;48.020;16.720;2023-03-04T18:49:50;99869.78;;;3.70;70.46
41515;BME280;27247;48.020;16.720;2023-03-04T18:54:03;99875.16;;;3.59;70.66
41515;BME280;27247;48.020;16.720;2023-03-04T18:58:14;99880.81;;;3.55;70.52
41515;BME280;27247;48.020;16.720;2023-03-04T19:06:48;99887.84;;;3.44;71.14
41515;BME280;27247;48.020;16.720;2023-03-04T19:10:58;99879.16;;;3.33;71.21
41515;BME280;27247;48.020;16.720;2023-03-04T19:15:12;99876.44;;;3.23;71.24
41515;BME280;27247;48.020;16.720;2023-03-04T19:19:23;99891.00;;;3.17;71.75
41515;BME280;27247;48.020;16.720;2023-03-04T19:23:34;99887.00;;;3.23;71.95
41515;BME280;27247;48.020;16.720;2023-03-04T19:27:45;99883.28;;;3.26;71.81
41515;BME280;27247;48.020;16.720;2023-03-04T19:31:56;99893.13;;;3.24;71.58
41515;BME280;27247;48.020;16.720;2023-03-04T19:36:07;99890.47;;;3.24;71.04
41515;BME280;27247;48.020;16.720;2023-03-04T19:40:19;99899.38;;;3.23;71.48
41515;BME280;27247;48.020;16.720;2023-03-04T19:44:30;99900.09;;;3.25;71.18
41515;BME280;27247;48.020;16.720;2023-03-04T19:48:41;99905.50;;;3.23;70.93
41515;BME280;27247;48.020;16.720;2023-03-04T19:52:54;99910.97;;;3.31;70.62
41515;BME280;27247;48.020;16.720;2023-03-04T19:57:05;99905.94;;;3.28;70.76
41515;BME280;27247;48.020;16.720;2023-03-04T20:01:21;99910.72;;;3.34;70.96
41515;BME280;27247;48.020;16.720;2023-03-04T20:05:35;99918.63;;;3.34;70.91
41515;BME280;27247;48.020;16.720;2023-03-04T20:09:46;99914.91;;;3.37;70.98
41515;BME280;27247;48.020;16.720;2023-03-04T20:13:58;99923.34;;;3.51;70.96
41515;BME280;27247;48.020;16.720;2023-03-04T20:18:09;99917.34;;;3.49;70.52
41515;BME280;27247;48.020;16.720;2023-03-04T20:22:21;99912.97;;;3.60;70.67
41515;BME280;27247;48.020;16.720;2023-03-04T20:26:32;99935.53;;;3.64;70.16
41515;BME280;27247;48.020;16.720;2023-03-04T20:30:43;99918.06;;;3.72;69.97
41515;BME280;27247;48.020;16.720;2023-03-04T20:34:54;99913.22;;;3.77;69.63
41515;BME280;27247;48.020;16.720;2023-03-04T20:39:07;99913.66;;;3.82;69.41
41515;BME280;27247;48.020;16.720;2023-03-04T20:43:20;99904.50;;;3.87;69.14
41515;BME280;27247;48.020;16.720;2023-03-04T20:47:32;99913.66;;;3.82;69.02
41515;BME280;27247;48.020;16.720;2023-03-04T20:51:43;99907.81;;;3.79;69.14
41515;BME280;27247;48.020;16.720;2023-03-04T20:55:54;99915.72;;;3.79;69.44
41515;BME280;27247;48.020;16.720;2023-03-04T21:00:06;99916.25;;;3.73;69.32
41515;BME280;27247;48.020;16.720;2023-03-04T21:04:18;99912.66;;;3.74;70.02
41515;BME280;27247;48.020;16.720;2023-03-04T21:08:29;99916.25;;;3.73;70.13
41515;BME280;27247;48.020;16.720;2023-03-04T21:12:39;99907.94;;;3.77;70.25
41515;BME280;27247;48.020;16.720;2023-03-04T21:16:52;99911.28;;;3.79;69.99
41515;BME280;27247;48.020;16.720;2023-03-04T21:21:16;99906.78;;;3.70;70.27
41515;BME280;27247;48.020;16.720;2023-03-04T21:25:28;99905.50;;;3.65;70.64
41515;BME280;27247;48.020;16.720;2023-03-04T21:29:39;99904.47;;;3.77;70.70
41515;BME280;27247;48.020;16.720;2023-03-04T21:33:51;99897.31;;;3.68;71.02
41515;BME280;27247;48.020;16.720;2023-03-04T21:38:03;99888.22;;;3.61;71.37
41515;BME280;27247;48.020;16.720;2023-03-04T21:42:13;99887.84;;;3.65;71.53
41515;BME280;27247;48.020;16.720;2023-03-04T21:46:23;99883.78;;;3.61;71.64
41515;BME280;27247;48.020;16.720;2023-03-04T21:50:36;99883.34;;;3.56;71.97
41515;BME280;27247;48.020;16.720;2023-03-04T21:54:47;99890.56;;;3.54;71.68
41515;BME280;27247;48.020;16.720;2023-03-04T21:58:59;99880.06;;;3.43;72.19
41515;BME280;27247;48.020;16.720;2023-03-04T22:03:10;99882.00;;;3.41;72.41
41515;BME280;27247;48.020;16.720;2023-03-04T22:07:20;99885.59;;;3.40;72.31
41515;BME280;27247;48.020;16.720;2023-03-04T22:11:31;99873.94;;;3.42;72.47
41515;BME280;27247;48.020;16.720;2023-03-04T22:15:43;99872.78;;;3.35;72.50
41515;BME280;27247;48.020;16.720;2023-03-04T22:19:53;99869.31;;;3.35;72.91
41515;BME280;27247;48.020;16.720;2023-03-04T22:24:04;99863.19;;;3.34;72.36
41515;BME280;27247;48.020;16.720;2023-03-04T22:28:14;99866.22;;;3.30;72.47
41515;BME280;27247;48.020;16.720;2023-03-04T22:32:25;99858.28;;;3.30;72.41
41515;BME280;27247;48.020;16.720;2023-03-04T22:36:38;99850.75;;;3.25;71.98
41515;BME280;27247;48.020;16.720;2023-03-04T22:40:49;99859.38;;;3.27;72.18
41515;BME280;27247;48.020;16.720;2023-03-04T22:44:59;99863.13;;;3.25;72.07
41515;BME280;27247;48.020;16.720;2023-03-04T22:49:11;99862.66;;;3.19;72.28
41515;BME280;27247;48.020;16.720;2023-03-04T22:53:22;99873.22;;;3.19;72.36
41515;BME280;27247;48.020;16.720;2023-03-04T22:57:32;99864.72;;;3.16;72.03
41515;BME280;27247;48.020;16.720;2023-03-04T23:01:43;99867.94;;;3.19;71.91
41515;BME280;27247;48.020;16.720;2023-03-04T23:06:08;99876.13;;;3.16;72.21
41515;BME280;27247;48.020;16.720;2023-03-04T23:10:22;99877.34;;;3.12;71.80
41515;BME280;27247;48.020;16.720;2023-03-04T23:14:32;99868.06;;;3.18;72.20
41515;BME280;27247;48.020;16.720;2023-03-04T23:18:44;99857.38;;;3.19;71.77